sensor_id;sensor_type;location;lat;lon;timestamp;pressure;altitude;pressure_sealevel;temperature;humidity
7058;BME280;3570;43.080;25.628;2023-10-09T00:01:58;-19885.22;;;14.84;70.29
7058;BME280;3570;43.080;25.628;2023-10-09T00:04:42;-19890.44;;;15.02;71.10
7058;BME280;3570;43.080;25.628;2023-10-09T00:07:29;-19882.88;;;14.76;67.42
7058;BME280;3570;43.080;25.628;2023-10-09T00:10:14;-19884.91;;;14.83;68.98
7058;BME280;3570;43.080;25.628;2023-10-09T00:13:01;-19887.53;;;14.92;68.59
7058;BME280;3570;43.080;25.628;2023-10-09T00:15:44;-19890.59;;;15.02;65.66
7058;BME280;3570;43.080;25.628;2023-10-09T00:18:35;-19886.66;;;14.89;65.45
7058;BME280;3570;43.080;25.628;2023-10-09T00:21:19;-19891.91;;;15.07;63.57
7058;BME280;3570;43.080;25.628;2023-10-09T00:24:07;-19890.16;;;15.01;60.45
7058;BME280;3570;43.080;25.628;2023-10-09T00:26:56;-19884.19;;;14.80;58.23
7058;BME280;3570;43.080;25.628;2023-10-09T00:29:46;-19880.13;;;14.66;60.02
7058;BME280;3570;43.080;25.628;2023-10-09T00:32:30;-19882.00;;;14.73;57.26
7058;BME280;3570;43.080;25.628;2023-10-09T00:35:18;-19880.56;;;14.68;58.89
7058;BME280;3570;43.080;25.628;2023-10-09T00:38:20;-19880.56;;;14.68;58.44
7058;BME280;3570;43.080;25.628;2023-10-09T00:41:04;-19881.00;;;14.69;58.98
7058;BME280;3570;43.080;25.628;2023-10-09T00:43:51;-19878.81;;;14.62;54.81
7058;BME280;3570;43.080;25.628;2023-10-09T00:46:36;-19883.03;;;14.76;54.45
7058;BME280;3570;43.080;25.628;2023-10-09T00:49:26;-19882.16;;;14.73;56.21
7058;BME280;3570;43.080;25.628;2023-10-09T00:52:11;-19881.56;;;14.71;54.19
7058;BME280;3570;43.080;25.628;2023-10-09T00:55:02;-19882.16;;;14.73;56.11
7058;BME280;3570;43.080;25.628;2023-10-09T00:57:51;-19884.63;;;14.82;57.77
7058;BME280;3570;43.080;25.628;2023-10-09T01:00:43;-19881.72;;;14.72;53.68
7058;BME280;3570;43.080;25.628;2023-10-09T01:03:27;-19886.38;;;14.88;55.83
7058;BME280;3570;43.080;25.628;2023-10-09T01:06:11;-19888.41;;;14.95;53.17
7058;BME280;3570;43.080;25.628;2023-10-09T01:08:55;-19890.31;;;15.01;54.85
7058;BME280;3570;43.080;25.628;2023-10-09T01:11:55;-19888.41;;;14.95;54.15
7058;BME280;3570;43.080;25.628;2023-10-09T01:14:46;-19889.00;;;14.97;53.54
7058;BME280;3570;43.080;25.628;2023-10-09T01:17:36;-19883.47;;;14.78;55.47
7058;BME280;3570;43.080;25.628;2023-10-09T01:20:22;-19888.56;;;14.95;53.74
7058;BME280;3570;43.080;25.628;2023-10-09T01:23:14;-19884.34;;;14.81;54.03
7058;BME280;3570;43.080;25.628;2023-10-09T01:25:59;-19886.66;;;14.89;54.47
7058;BME280;3570;43.080;25.628;2023-10-09T01:28:43;-19877.06;;;14.56;56.10
7058;BME280;3570;43.080;25.628;2023-10-09T01:31:27;-19893.81;;;15.14;54.73
7058;BME280;3570;43.080;25.628;2023-10-09T01:34:25;-19889.00;;;14.97;55.51
7058;BME280;3570;43.080;25.628;2023-10-09T01:37:28;-19887.09;;;14.90;54.46
7058;BME280;3570;43.080;25.628;2023-10-09T01:40:13;-19885.78;;;14.86;55.24
7058;BME280;3570;43.080;25.628;2023-10-09T01:43:20;-19880.41;;;14.67;55.70
7058;BME280;3570;43.080;25.628;2023-10-09T01:46:05;-19879.53;;;14.64;55.85
7058;BME280;3570;43.080;25.628;2023-10-09T01:48:49;-19881.56;;;14.71;55.91
7058;BME280;3570;43.080;25.628;2023-10-09T01:51:33;-19871.66;;;14.37;56.50
7058;BME280;3570;43.080;25.628;2023-10-09T01:54:20;-19879.38;;;14.64;56.97
7058;BME280;3570;43.080;25.628;2023-10-09T01:57:20;-19881.00;;;14.69;56.55
7058;BME280;3570;43.080;25.628;2023-10-09T02:00:08;-19879.38;;;14.64;56.01
7058;BME280;3570;43.080;25.628;2023-10-09T02:02:53;-19884.63;;;14.82;57.85
7058;BME280;3570;43.080;25.628;2023-10-09T02:05:37;-19883.75;;;14.79;56.81
7058;BME280;3570;43.080;25.628;2023-10-09T02:08:21;-19888.56;;;14.95;55.24
7058;BME280;3570;43.080;25.628;2023-10-09T02:11:10;-19886.81;;;14.89;53.39
7058;BME280;3570;43.080;25.628;2023-10-09T02:13:58;-19888.72;;;14.96;57.08
7058;BME280;3570;43.080;25.628;2023-10-09T02:16:46;-19896.56;;;15.23;55.59
7058;BME280;3570;43.080;25.628;2023-10-09T02:19:46;-19897.00;;;15.25;53.53
7058;BME280;3570;43.080;25.628;2023-10-09T02:22:33;-19902.97;;;15.45;55.17
7058;BME280;3570;43.080;25.628;2023-10-09T02:25:18;-19891.75;;;15.06;54.05
7058;BME280;3570;43.080;25.628;2023-10-09T02:28:05;-19894.81;;;15.17;52.95
7058;BME280;3570;43.080;25.628;2023-10-09T02:30:51;-19884.78;;;14.82;55.54
7058;BME280;3570;43.080;25.628;2023-10-09T02:33:36;-19891.03;;;15.04;55.02
7058;BME280;3570;43.080;25.628;2023-10-09T02:36:22;-19898.31;;;15.29;54.68
7058;BME280;3570;43.080;25.628;2023-10-09T02:39:06;-19892.78;;;15.10;54.09
7058;BME280;3570;43.080;25.628;2023-10-09T02:42:05;-19890.75;;;15.03;54.29
7058;BME280;3570;43.080;25.628;2023-10-09T02:45:07;-19890.16;;;15.01;55.46
7058;BME280;3570;43.080;25.628;2023-10-09T02:47:53;-19883.75;;;14.79;52.54
7058;BME280;3570;43.080;25.628;2023-10-09T02:50:39;-19883.03;;;14.76;56.50
7058;BME280;3570;43.080;25.628;2023-10-09T02:53:28;-19873.84;;;14.45;53.84
7058;BME280;3570;43.080;25.628;2023-10-09T02:56:19;-19875.47;;;14.50;56.04
7058;BME280;3570;43.080;25.628;2023-10-09T02:59:19;-19882.00;;;14.73;57.05
7058;BME280;3570;43.080;25.628;2023-10-09T03:02:05;-19883.75;;;14.79;55.32
7058;BME280;3570;43.080;25.628;2023-10-09T03:04:49;-19883.16;;;14.77;56.32
7058;BME280;3570;43.080;25.628;2023-10-09T03:07:33;-19879.69;;;14.65;55.40
7058;BME280;3570;43.080;25.628;2023-10-09T03:10:18;-19877.94;;;14.59;54.19
7058;BME280;3570;43.080;25.628;2023-10-09T03:13:02;-19861.63;;;14.02;55.13
7058;BME280;3570;43.080;25.628;2023-10-09T03:15:48;-19864.81;;;14.13;54.34
7058;BME280;3570;43.080;25.628;2023-10-09T03:18:36;-19869.78;;;14.31;54.97
7058;BME280;3570;43.080;25.628;2023-10-09T03:21:20;-19875.31;;;14.50;56.14
7058;BME280;3570;43.080;25.628;2023-10-09T03:24:04;-19878.06;;;14.59;54.04
7058;BME280;3570;43.080;25.628;2023-10-09T03:26:50;-19885.66;;;14.85;55.23
7058;BME280;3570;43.080;25.628;2023-10-09T03:29:35;-19889.56;;;14.99;55.42
7058;BME280;3570;43.080;25.628;2023-10-09T03:32:20;-19884.63;;;14.82;52.43
7058;BME280;3570;43.080;25.628;2023-10-09T03:35:05;-19876.91;;;14.55;55.87
7058;BME280;3570;43.080;25.628;2023-10-09T03:37:55;-19877.63;;;14.58;55.61
7058;BME280;3570;43.080;25.628;2023-10-09T03:41:02;-19879.69;;;14.65;54.20
7058;BME280;3570;43.080;25.628;2023-10-09T03:43:49;-19899.19;;;15.32;53.13
7058;BME280;3570;43.080;25.628;2023-10-09T03:46:34;-19893.94;;;15.14;52.78
7058;BME280;3570;43.080;25.628;2023-10-09T03:49:20;-19891.47;;;15.05;51.50
7058;BME280;3570;43.080;25.628;2023-10-09T03:52:07;-19877.78;;;14.58;52.94
7058;BME280;3570;43.080;25.628;2023-10-09T03:54:53;-19888.13;;;14.94;52.55
7058;BME280;3570;43.080;25.628;2023-10-09T03:57:40;-19889.28;;;14.98;53.45
7058;BME280;3570;43.080;25.628;2023-10-09T04:00:24;-19884.19;;;14.80;53.62
7058;BME280;3570;43.080;25.628;2023-10-09T04:03:11;-19885.50;;;14.85;52.03
7058;BME280;3570;43.080;25.628;2023-10-09T04:05:57;-19889.56;;;14.99;53.99
7058;BME280;3570;43.080;25.628;2023-10-09T04:08:42;-19887.97;;;14.93;52.71
7058;BME280;3570;43.080;25.628;2023-10-09T04:11:33;-19885.50;;;14.85;52.50
7058;BME280;3570;43.080;25.628;2023-10-09T04:14:17;-19879.38;;;14.64;53.16
7058;BME280;3570;43.080;25.628;2023-10-09T04:17:20;-19884.06;;;14.80;54.94
7058;BME280;3570;43.080;25.628;2023-10-09T04:20:17;-19889.56;;;14.99;52.05
7058;BME280;3570;43.080;25.628;2023-10-09T04:23:02;-19884.34;;;14.81;53.57
7058;BME280;3570;43.080;25.628;2023-10-09T04:25:49;-19869.47;;;14.30;53.25
7058;BME280;3570;43.080;25.628;2023-10-09T04:28:34;-19863.94;;;14.10;54.30
7058;BME280;3570;43.080;25.628;2023-10-09T04:31:20;-19865.09;;;14.14;53.93
7058;BME280;3570;43.080;25.628;2023-10-09T04:34:06;-19880.13;;;14.66;53.82
7058;BME280;3570;43.080;25.628;2023-10-09T04:37:06;-19876.78;;;14.55;56.69
7058;BME280;3570;43.080;25.628;2023-10-09T04:40:10;-19876.03;;;14.52;53.03
7058;BME280;3570;43.080;25.628;2023-10-09T04:43:17;-19876.19;;;14.53;52.82
7058;BME280;3570;43.080;25.628;2023-10-09T04:46:04;-19876.78;;;14.55;54.21
7058;BME280;3570;43.080;25.628;2023-10-09T04:49:06;-19875.16;;;14.49;54.35
7058;BME280;3570;43.080;25.628;2023-10-09T04:52:09;-19882.88;;;14.76;53.81
7058;BME280;3570;43.080;25.628;2023-10-09T04:55:02;-19889.44;;;14.98;53.65
7058;BME280;3570;43.080;25.628;2023-10-09T04:57:55;-19880.56;;;14.68;50.87
7058;BME280;3570;43.080;25.628;2023-10-09T05:00:53;-19889.00;;;14.97;52.47
7058;BME280;3570;43.080;25.628;2023-10-09T05:03:43;-19885.22;;;14.84;50.81
7058;BME280;3570;43.080;25.628;2023-10-09T05:06:27;-19887.97;;;14.93;52.12
7058;BME280;3570;43.080;25.628;2023-10-09T05:09:37;-19888.13;;;14.94;51.57
7058;BME280;3570;43.080;25.628;2023-10-09T05:12:39;-19879.69;;;14.65;52.09
7058;BME280;3570;43.080;25.628;2023-10-09T05:15:30;-19880.69;;;14.68;51.14
7058;BME280;3570;43.080;25.628;2023-10-09T05:18:18;-19886.66;;;14.89;51.68
7058;BME280;3570;43.080;25.628;2023-10-09T05:21:05;-19885.66;;;14.85;52.89
7058;BME280;3570;43.080;25.628;2023-10-09T05:24:09;-19895.69;;;15.20;52.43
7058;BME280;3570;43.080;25.628;2023-10-09T05:26:55;-19900.34;;;15.36;52.21
7058;BME280;3570;43.080;25.628;2023-10-09T05:29:59;-19894.09;;;15.15;52.76
7058;BME280;3570;43.080;25.628;2023-10-09T05:32:56;-19903.13;;;15.46;51.65
7058;BME280;3570;43.080;25.628;2023-10-09T05:36:06;-19909.53;;;15.68;50.89
7058;BME280;3570;43.080;25.628;2023-10-09T05:39:22;-19914.47;;;15.85;51.99
7058;BME280;3570;43.080;25.628;2023-10-09T05:42:24;-19912.88;;;15.79;50.90
7058;BME280;3570;43.080;25.628;2023-10-09T05:45:26;-19904.56;;;15.51;52.48
7058;BME280;3570;43.080;25.628;2023-10-09T05:48:33;-19904.00;;;15.49;52.50
7058;BME280;3570;43.080;25.628;2023-10-09T05:51:37;-19920.16;;;16.05;50.93
7058;BME280;3570;43.080;25.628;2023-10-09T05:54:27;-19921.59;;;16.10;51.32
7058;BME280;3570;43.080;25.628;2023-10-09T05:57:34;-19911.28;;;15.74;50.96
7058;BME280;3570;43.080;25.628;2023-10-09T06:00:37;-19915.63;;;15.89;50.79
7058;BME280;3570;43.080;25.628;2023-10-09T06:03:39;-19917.97;;;15.97;51.66
7058;BME280;3570;43.080;25.628;2023-10-09T06:06:32;-19921.00;;;16.08;50.66
7058;BME280;3570;43.080;25.628;2023-10-09T06:09:16;-19917.22;;;15.94;50.88
7058;BME280;3570;43.080;25.628;2023-10-09T06:12:00;-19918.53;;;15.99;51.83
7058;BME280;3570;43.080;25.628;2023-10-09T06:15:05;-19917.66;;;15.96;51.08
7058;BME280;3570;43.080;25.628;2023-10-09T06:18:08;-19918.25;;;15.98;51.80
7058;BME280;3570;43.080;25.628;2023-10-09T06:21:16;-19915.91;;;15.90;51.65
7058;BME280;3570;43.080;25.628;2023-10-09T06:24:23;-19910.09;;;15.70;51.26
7058;BME280;3570;43.080;25.628;2023-10-09T06:27:11;-19901.50;;;15.40;52.64
7058;BME280;3570;43.080;25.628;2023-10-09T06:29:58;-19912.88;;;15.79;52.58
7058;BME280;3570;43.080;25.628;2023-10-09T06:33:01;-19918.53;;;15.99;53.30
7058;BME280;3570;43.080;25.628;2023-10-09T06:36:03;-19910.84;;;15.72;52.25
7058;BME280;3570;43.080;25.628;2023-10-09T06:38:52;-19923.34;;;16.16;52.31
7058;BME280;3570;43.080;25.628;2023-10-09T06:41:56;-19922.47;;;16.13;51.19
7058;BME280;3570;43.080;25.628;2023-10-09T06:44:53;-19918.69;;;15.99;50.02
7058;BME280;3570;43.080;25.628;2023-10-09T06:47:37;-19920.44;;;16.06;50.62
7058;BME280;3570;43.080;25.628;2023-10-09T06:50:47;-19919.25;;;16.01;50.28
7058;BME280;3570;43.080;25.628;2023-10-09T06:53:42;-19919.84;;;16.03;50.21
7058;BME280;3570;43.080;25.628;2023-10-09T06:56:38;-19917.09;;;15.94;48.72
7058;BME280;3570;43.080;25.628;2023-10-09T06:59:22;-19924.06;;;16.18;49.51
7058;BME280;3570;43.080;25.628;2023-10-09T07:02:08;-19924.34;;;16.19;49.55
7058;BME280;3570;43.080;25.628;2023-10-09T07:04:52;-19930.03;;;16.39;49.01
7058;BME280;3570;43.080;25.628;2023-10-09T07:07:38;-19933.22;;;16.50;48.13
7058;BME280;3570;43.080;25.628;2023-10-09T07:10:34;-19937.88;;;16.66;47.14
7058;BME280;3570;43.080;25.628;2023-10-09T07:13:23;-19942.25;;;16.81;48.20
7058;BME280;3570;43.080;25.628;2023-10-09T07:16:08;-19946.31;;;16.95;46.76
7058;BME280;3570;43.080;25.628;2023-10-09T07:19:07;-19944.72;;;16.89;47.05
7058;BME280;3570;43.080;25.628;2023-10-09T07:22:14;-19954.75;;;17.24;46.46
7058;BME280;3570;43.080;25.628;2023-10-09T07:25:05;-19956.63;;;17.31;45.71
7058;BME280;3570;43.080;25.628;2023-10-09T07:28:00;-19967.81;;;17.69;43.56
7058;BME280;3570;43.080;25.628;2023-10-09T07:30:46;-19969.84;;;17.76;43.42
7058;BME280;3570;43.080;25.628;2023-10-09T07:33:31;-19965.66;;;17.62;44.27
7058;BME280;3570;43.080;25.628;2023-10-09T07:36:35;-19963.19;;;17.53;43.57
7058;BME280;3570;43.080;25.628;2023-10-09T07:39:22;-19967.53;;;17.68;43.63
7058;BME280;3570;43.080;25.628;2023-10-09T07:42:06;-19974.22;;;17.92;43.05
7058;BME280;3570;43.080;25.628;2023-10-09T07:45:00;-19981.91;;;18.18;42.59
7058;BME280;3570;43.080;25.628;2023-10-09T07:47:55;-19987.88;;;18.39;42.84
7058;BME280;3570;43.080;25.628;2023-10-09T07:50:49;-19990.63;;;18.48;42.65
7058;BME280;3570;43.080;25.628;2023-10-09T07:53:33;-19994.97;;;18.63;42.26
7058;BME280;3570;43.080;25.628;2023-10-09T07:56:27;-19998.91;;;18.77;41.76
7058;BME280;3570;43.080;25.628;2023-10-09T07:59:21;-20004.13;;;18.95;41.98
7058;BME280;3570;43.080;25.628;2023-10-09T08:02:08;-20001.06;;;18.85;40.76
7058;BME280;3570;43.080;25.628;2023-10-09T08:05:01;-20025.88;;;19.70;40.33
7058;BME280;3570;43.080;25.628;2023-10-09T08:08:02;-20026.47;;;19.73;39.62
7058;BME280;3570;43.080;25.628;2023-10-09T08:11:09;-20031.69;;;19.91;39.92
7058;BME280;3570;43.080;25.628;2023-10-09T08:14:12;-20028.19;;;19.79;39.41
7058;BME280;3570;43.080;25.628;2023-10-09T08:17:15;-20036.16;;;20.06;39.31
7058;BME280;3570;43.080;25.628;2023-10-09T08:20:00;-20033.72;;;19.98;39.95
7058;BME280;3570;43.080;25.628;2023-10-09T08:22:55;-20030.53;;;19.87;39.35
7058;BME280;3570;43.080;25.628;2023-10-09T08:25:39;-20050.09;;;20.54;39.18
7058;BME280;3570;43.080;25.628;2023-10-09T08:28:42;-20064.28;;;21.04;37.91
7058;BME280;3570;43.080;25.628;2023-10-09T08:31:29;-20075.44;;;21.42;37.40
7058;BME280;3570;43.080;25.628;2023-10-09T08:34:29;-20082.25;;;21.66;36.88
7058;BME280;3570;43.080;25.628;2023-10-09T08:37:19;-20094.84;;;22.10;36.65
7058;BME280;3570;43.080;25.628;2023-10-09T08:40:09;-20095.72;;;22.13;36.55
7058;BME280;3570;43.080;25.628;2023-10-09T08:42:54;-20086.16;;;21.80;37.17
7058;BME280;3570;43.080;25.628;2023-10-09T08:45:39;-20089.50;;;21.91;36.75
7058;BME280;3570;43.080;25.628;2023-10-09T08:48:23;-20106.56;;;22.51;36.43
7058;BME280;3570;43.080;25.628;2023-10-09T08:51:10;-20126.94;;;23.21;34.81
7058;BME280;3570;43.080;25.628;2023-10-09T08:53:54;-20143.13;;;23.78;34.03
7058;BME280;3570;43.080;25.628;2023-10-09T08:56:38;-20159.91;;;24.36;33.19
7058;BME280;3570;43.080;25.628;2023-10-09T08:59:33;-20148.34;;;23.96;33.13
7058;BME280;3570;43.080;25.628;2023-10-09T09:02:19;-20116.53;;;22.85;35.58
7058;BME280;3570;43.080;25.628;2023-10-09T09:05:16;-20118.28;;;22.91;35.01
7058;BME280;3570;43.080;25.628;2023-10-09T09:08:02;-20117.25;;;22.88;35.28
7058;BME280;3570;43.080;25.628;2023-10-09T09:10:52;-20134.91;;;23.49;34.96
7058;BME280;3570;43.080;25.628;2023-10-09T09:13:43;-20142.56;;;23.76;34.42
7058;BME280;3570;43.080;25.628;2023-10-09T09:16:35;-20159.03;;;24.33;33.81
7058;BME280;3570;43.080;25.628;2023-10-09T09:19:30;-20169.56;;;24.70;33.26
7058;BME280;3570;43.080;25.628;2023-10-09T09:22:15;-20192.09;;;25.48;31.76
7058;BME280;3570;43.080;25.628;2023-10-09T09:25:03;-20197.13;;;25.66;31.62
7058;BME280;3570;43.080;25.628;2023-10-09T09:27:53;-20207.81;;;26.03;31.29
7058;BME280;3570;43.080;25.628;2023-10-09T09:30:39;-20200.59;;;25.78;31.19
7058;BME280;3570;43.080;25.628;2023-10-09T09:33:26;-20190.78;;;25.44;31.63
7058;BME280;3570;43.080;25.628;2023-10-09T09:36:23;-20160.75;;;24.39;33.05
7058;BME280;3570;43.080;25.628;2023-10-09T09:39:10;-20143.00;;;23.77;33.75
7058;BME280;3570;43.080;25.628;2023-10-09T09:42:03;-20182.28;;;25.14;33.12
7058;BME280;3570;43.080;25.628;2023-10-09T09:44:58;-20153.69;;;24.14;34.05
7058;BME280;3570;43.080;25.628;2023-10-09T09:47:44;-20165.09;;;24.54;33.01
7058;BME280;3570;43.080;25.628;2023-10-09T09:50:35;-20155.56;;;24.21;33.51
7058;BME280;3570;43.080;25.628;2023-10-09T09:53:28;-20177.50;;;24.97;33.46
7058;BME280;3570;43.080;25.628;2023-10-09T09:56:20;-20203.19;;;25.87;31.73
7058;BME280;3570;43.080;25.628;2023-10-09T09:59:09;-20224.66;;;26.62;30.91
7058;BME280;3570;43.080;25.628;2023-10-09T10:01:58;-20234.91;;;26.97;30.07
7058;BME280;3570;43.080;25.628;2023-10-09T10:04:54;-20273.47;;;28.32;28.83
7058;BME280;3570;43.080;25.628;2023-10-09T10:07:40;-20258.22;;;27.79;29.03
7058;BME280;3570;43.080;25.628;2023-10-09T10:10:33;-20310.00;;;29.60;27.58
7058;BME280;3570;43.080;25.628;2023-10-09T10:16:24;-20292.31;;;28.98;27.00
7058;BME280;3570;43.080;25.628;2023-10-09T10:19:18;-20307.25;;;29.50;27.11
7058;BME280;3570;43.080;25.628;2023-10-09T10:22:24;-20333.97;;;30.44;26.18
7058;BME280;3570;43.080;25.628;2023-10-09T10:25:31;-20348.16;;;30.94;26.13
7058;BME280;3570;43.080;25.628;2023-10-09T10:28:17;-20308.84;;;29.56;26.58
7058;BME280;3570;43.080;25.628;2023-10-09T10:31:12;-20299.66;;;29.24;27.56
7058;BME280;3570;43.080;25.628;2023-10-09T10:36:43;-20300.78;;;29.28;27.35
7058;BME280;3570;43.080;25.628;2023-10-09T10:39:29;-20318.47;;;29.90;27.20
7058;BME280;3570;43.080;25.628;2023-10-09T10:42:28;-20336.69;;;30.53;25.92
7058;BME280;3570;43.080;25.628;2023-10-09T10:45:18;-20348.03;;;30.93;25.45
7058;BME280;3570;43.080;25.628;2023-10-09T10:48:18;-20397.63;;;32.67;23.79
7058;BME280;3570;43.080;25.628;2023-10-09T10:51:21;-20361.09;;;31.39;24.50
7058;BME280;3570;43.080;25.628;2023-10-09T10:54:08;-20312.44;;;29.68;25.96
7058;BME280;3570;43.080;25.628;2023-10-09T10:57:15;-20266.56;;;28.08;27.55
7058;BME280;3570;43.080;25.628;2023-10-09T11:00:22;-20271.88;;;28.27;28.29
7058;BME280;3570;43.080;25.628;2023-10-09T11:03:25;-20308.41;;;29.54;27.14
7058;BME280;3570;43.080;25.628;2023-10-09T11:06:29;-20345.88;;;30.86;25.70
7058;BME280;3570;43.080;25.628;2023-10-09T11:09:20;-20357.91;;;31.28;25.47
7058;BME280;3570;43.080;25.628;2023-10-09T11:12:05;-20394.59;;;32.57;24.12
7058;BME280;3570;43.080;25.628;2023-10-09T11:15:39;-20354.63;;;31.16;25.26
7058;BME280;3570;43.080;25.628;2023-10-09T11:18:41;-20318.03;;;29.88;25.26
7058;BME280;3570;43.080;25.628;2023-10-09T11:21:32;-20323.50;;;30.07;26.33
7058;BME280;3570;43.080;25.628;2023-10-09T11:24:28;-20354.34;;;31.15;24.42
7058;BME280;3570;43.080;25.628;2023-10-09T11:27:18;-20380.28;;;32.06;24.41
7058;BME280;3570;43.080;25.628;2023-10-09T11:30:03;-20385.16;;;32.23;23.81
7058;BME280;3570;43.080;25.628;2023-10-09T11:33:04;-20406.78;;;32.99;23.03
7058;BME280;3570;43.080;25.628;2023-10-09T11:35:56;-20403.78;;;32.89;22.85
7058;BME280;3570;43.080;25.628;2023-10-09T11:38:44;-20431.53;;;33.86;22.40
7058;BME280;3570;43.080;25.628;2023-10-09T11:41:30;-20411.06;;;33.14;22.37
7058;BME280;3570;43.080;25.628;2023-10-09T11:44:36;-20434.66;;;33.97;22.28
7058;BME280;3570;43.080;25.628;2023-10-09T11:47:22;-20423.66;;;33.59;22.19
7058;BME280;3570;43.080;25.628;2023-10-09T11:50:08;-20424.66;;;33.62;22.36
7058;BME280;3570;43.080;25.628;2023-10-09T11:52:58;-20380.16;;;32.06;23.36
7058;BME280;3570;43.080;25.628;2023-10-09T11:56:01;-20406.91;;;33.00;22.54
7058;BME280;3570;43.080;25.628;2023-10-09T11:58:49;-20389.44;;;32.38;23.05
7058;BME280;3570;43.080;25.628;2023-10-09T12:01:37;-20417.66;;;33.38;22.73
7058;BME280;3570;43.080;25.628;2023-10-09T12:04:26;-20435.53;;;34.00;21.53
7058;BME280;3570;43.080;25.628;2023-10-09T12:07:14;-20455.41;;;34.70;21.88
7058;BME280;3570;43.080;25.628;2023-10-09T12:09:58;-20451.69;;;34.57;20.52
7058;BME280;3570;43.080;25.628;2023-10-09T12:12:42;-20449.41;;;34.49;21.00
7058;BME280;3570;43.080;25.628;2023-10-09T12:15:31;-20449.53;;;34.50;21.43
7058;BME280;3570;43.080;25.628;2023-10-09T12:18:21;-20392.03;;;32.48;22.91
7058;BME280;3570;43.080;25.628;2023-10-09T12:21:08;-20404.34;;;32.91;22.95
7058;BME280;3570;43.080;25.628;2023-10-09T12:23:52;-20426.22;;;33.68;22.27
7058;BME280;3570;43.080;25.628;2023-10-09T12:26:41;-20433.94;;;33.95;21.33
7058;BME280;3570;43.080;25.628;2023-10-09T12:29:26;-20409.78;;;33.10;22.07
7058;BME280;3570;43.080;25.628;2023-10-09T12:32:14;-20304.97;;;29.42;25.50
7058;BME280;3570;43.080;25.628;2023-10-09T12:35:03;-20339.56;;;30.64;24.35
7058;BME280;3570;43.080;25.628;2023-10-09T12:37:47;-20326.34;;;30.17;24.99
7058;BME280;3570;43.080;25.628;2023-10-09T12:40:33;-20310.84;;;29.63;25.91
7058;BME280;3570;43.080;25.628;2023-10-09T12:43:18;-20341.72;;;30.71;24.05
7058;BME280;3570;43.080;25.628;2023-10-09T12:46:07;-20403.78;;;32.89;22.55
7058;BME280;3570;43.080;25.628;2023-10-09T12:48:54;-20430.81;;;33.84;21.44
7058;BME280;3570;43.080;25.628;2023-10-09T12:51:39;-20418.38;;;33.40;22.80
7058;BME280;3570;43.080;25.628;2023-10-09T12:54:25;-20416.06;;;33.32;22.76
7058;BME280;3570;43.080;25.628;2023-10-09T12:57:12;-20400.75;;;32.78;22.80
7058;BME280;3570;43.080;25.628;2023-10-09T12:59:59;-20424.50;;;33.62;22.10
7058;BME280;3570;43.080;25.628;2023-10-09T13:02:44;-20436.97;;;34.05;20.75
7058;BME280;3570;43.080;25.628;2023-10-09T13:05:28;-20420.94;;;33.49;21.67
7058;BME280;3570;43.080;25.628;2023-10-09T13:08:12;-20407.63;;;33.02;22.41
7058;BME280;3570;43.080;25.628;2023-10-09T13:10:56;-20409.50;;;33.09;22.18
7058;BME280;3570;43.080;25.628;2023-10-09T13:13:45;-20406.06;;;32.97;23.16
7058;BME280;3570;43.080;25.628;2023-10-09T13:16:36;-20435.69;;;34.01;22.27
7058;BME280;3570;43.080;25.628;2023-10-09T13:19:20;-20464.09;;;35.01;20.99
7058;BME280;3570;43.080;25.628;2023-10-09T13:22:08;-20491.66;;;35.98;20.06
7058;BME280;3570;43.080;25.628;2023-10-09T13:24:56;-20498.63;;;36.23;19.68
7058;BME280;3570;43.080;25.628;2023-10-09T13:27:47;-20489.78;;;35.91;19.98
7058;BME280;3570;43.080;25.628;2023-10-09T13:30:38;-20449.97;;;34.51;19.95
7058;BME280;3570;43.080;25.628;2023-10-09T13:33:23;-20436.97;;;34.05;19.76
7058;BME280;3570;43.080;25.628;2023-10-09T13:36:06;-20380.44;;;32.07;21.22
7058;BME280;3570;43.080;25.628;2023-10-09T13:39:03;-20382.28;;;32.13;22.43
7058;BME280;3570;43.080;25.628;2023-10-09T13:42:06;-20360.66;;;31.37;22.83
7058;BME280;3570;43.080;25.628;2023-10-09T13:44:51;-20261.81;;;27.91;25.52
7058;BME280;3570;43.080;25.628;2023-10-09T13:47:37;-20278.06;;;28.48;25.15
7058;BME280;3570;43.080;25.628;2023-10-09T13:50:25;-20336.13;;;30.51;23.29
7058;BME280;3570;43.080;25.628;2023-10-09T13:53:16;-20300.78;;;29.28;23.67
7058;BME280;3570;43.080;25.628;2023-10-09T13:56:00;-20324.06;;;30.09;23.41
7058;BME280;3570;43.080;25.628;2023-10-09T13:58:48;-20308.13;;;29.53;23.79
7058;BME280;3570;43.080;25.628;2023-10-09T14:01:37;-20316.03;;;29.81;24.58
7058;BME280;3570;43.080;25.628;2023-10-09T14:04:23;-20269.16;;;28.17;25.44
7058;BME280;3570;43.080;25.628;2023-10-09T14:07:07;-20250.44;;;27.52;27.22
7058;BME280;3570;43.080;25.628;2023-10-09T14:09:52;-20297.91;;;29.18;25.88
7058;BME280;3570;43.080;25.628;2023-10-09T14:12:39;-20350.47;;;31.02;23.39
7058;BME280;3570;43.080;25.628;2023-10-09T14:15:24;-20344.72;;;30.82;24.10
7058;BME280;3570;43.080;25.628;2023-10-09T14:18:08;-20332.25;;;30.38;24.46
7058;BME280;3570;43.080;25.628;2023-10-09T14:20:55;-20334.69;;;30.46;23.38
7058;BME280;3570;43.080;25.628;2023-10-09T14:23:41;-20320.63;;;29.97;23.02
7058;BME280;3570;43.080;25.628;2023-10-09T14:26:29;-20265.84;;;28.06;24.28
7058;BME280;3570;43.080;25.628;2023-10-09T14:29:13;-20231.00;;;26.84;24.69
7058;BME280;3570;43.080;25.628;2023-10-09T14:32:01;-20204.47;;;25.91;26.17
7058;BME280;3570;43.080;25.628;2023-10-09T14:34:44;-20234.75;;;26.97;25.85
7058;BME280;3570;43.080;25.628;2023-10-09T14:37:35;-20230.88;;;26.83;26.86
7058;BME280;3570;43.080;25.628;2023-10-09T14:40:19;-20278.94;;;28.51;25.21
7058;BME280;3570;43.080;25.628;2023-10-09T14:43:13;-20313.56;;;29.73;23.88
7058;BME280;3570;43.080;25.628;2023-10-09T14:46:04;-20343.28;;;30.77;22.45
7058;BME280;3570;43.080;25.628;2023-10-09T14:48:55;-20365.81;;;31.56;21.84
7058;BME280;3570;43.080;25.628;2023-10-09T14:51:39;-20372.97;;;31.81;21.52
7058;BME280;3570;43.080;25.628;2023-10-09T14:54:26;-20302.81;;;29.35;22.07
7058;BME280;3570;43.080;25.628;2023-10-09T14:57:10;-20232.88;;;26.90;23.66
7058;BME280;3570;43.080;25.628;2023-10-09T14:59:55;-20166.81;;;24.60;26.08
7058;BME280;3570;43.080;25.628;2023-10-09T15:02:40;-20143.72;;;23.80;27.33
7058;BME280;3570;43.080;25.628;2023-10-09T15:05:24;-20150.06;;;24.02;27.19
7058;BME280;3570;43.080;25.628;2023-10-09T15:08:08;-20143.72;;;23.80;27.34
7058;BME280;3570;43.080;25.628;2023-10-09T15:10:55;-20127.09;;;23.22;27.80